This is the latest recevied weather packets stored in our database for station/object AE7VB. If no packets are shown the sender has not sent any weather packets the latest 10 day(s).
| Time | Temp. | Humidity | Pressure | Rain* | Wind** | Luminosity | Snow |
|---|---|---|---|---|---|---|---|
| 1777512529 | 14.44° C | 46% | 1025.9 hPa | 0 mm | - | - | - |
| 1777509492 | 14.44° C | 45% | 1025.7 hPa | 0 mm | - | - | - |
| 1777502693 | 14.44° C | 42% | 1026.2 hPa | 0 mm | - | - | - |
| 1777492318 | 15° C | 47% | 1027.4 hPa | 0 mm | - | - | - |
| 1777488077 | 13.89° C | 53% | 1027.8 hPa | 0 mm | - | - | - |
| 1777484439 | 12.78° C | 63% | 1027.9 hPa | 0 mm | - | - | - |
| 1777483237 | 12.78° C | 66% | 1027.8 hPa | 0 mm | - | - | - |
| 1777482035 | 11.11° C | 65% | 1027.4 hPa | 0 mm | - | - | - |
| 1777480834 | 10.56° C | 72% | 1027.3 hPa | 0 mm | - | - | - |
| 1777479632 | 9.44° C | 73% | 1027.1 hPa | 0 mm | - | - | - |
| 1777477798 | 8.89° C | 75% | 1027 hPa | 0 mm | - | - | - |
| 1777477197 | 8.33° C | 75% | 1027 hPa | 0 mm | - | - | - |
| 1777472897 | 6.11° C | 82% | 1027.1 hPa | 0 mm | - | - | - |
| 1777470492 | 4.44° C | 86% | 1026.9 hPa | 0 mm | - | - | - |
| 1777466285 | 2.22° C | 86% | 1025.8 hPa | 0 mm | - | - | - |
| 1777459009 | 3.89° C | 85% | 1025.4 hPa | 0 mm | - | - | - |
| 1777457207 | 3.89° C | 83% | 1025.6 hPa | 0 mm | - | - | - |
| 1777453569 | 3.89° C | 82% | 1025.2 hPa | 0 mm | - | - | - |
| 1777444554 | 6.11° C | 77% | 1025.6 hPa | 0 mm | - | - | - |
| 1777443953 | 6.67° C | 76% | 1025.8 hPa | 0 mm | - | - | - |
| 1777441518 | 7.22° C | 74% | 1025.6 hPa | 0 mm | - | - | - |
| 1777439715 | 7.22° C | 75% | 1025.1 hPa | 0 mm | - | - | - |
| 1777431865 | 10° C | 68% | 1023.8 hPa | 0 mm | - | - | - |
| 1777425665 | 12.22° C | 56% | 1022.9 hPa | 0 mm | - | - | - |
| 1777423230 | 12.22° C | 56% | 1022.8 hPa | 0 mm | - | - | - |
* Rain latest hour (hover to see other rain measurements)
** Current wind speed in m/s (hover to see current wind gust speed)